createdAt,value
2016-06-05T00:00:06.227Z,1010.93
2016-06-05T00:00:16.211Z,1010.9
2016-06-05T00:00:26.211Z,1010.88
2016-06-05T00:00:36.211Z,1010.87
2016-06-05T00:00:46.214Z,1010.86
2016-06-05T00:00:56.214Z,1010.89
2016-06-05T00:01:06.214Z,1010.88
2016-06-05T00:01:16.198Z,1010.86
2016-06-05T00:01:26.198Z,1010.88
2016-06-05T00:01:36.183Z,1010.93
2016-06-05T00:01:46.186Z,1010.92
2016-06-05T00:01:56.186Z,1010.9
2016-06-05T00:02:06.170Z,1010.89
2016-06-05T00:02:16.170Z,1010.86
2016-06-05T00:02:26.155Z,1010.88
2016-06-05T00:02:36.155Z,1010.93
2016-06-05T00:02:46.157Z,1010.93
2016-06-05T00:02:56.157Z,1010.94
2016-06-05T00:03:06.141Z,1010.9
2016-06-05T00:03:16.141Z,1010.92
2016-06-05T00:03:26.141Z,1010.88
2016-06-05T00:03:36.125Z,1010.9
2016-06-05T00:03:46.128Z,1010.89
2016-06-05T00:03:56.128Z,1010.9
2016-06-05T00:04:06.128Z,1010.97
2016-06-05T00:04:16.113Z,1010.88
2016-06-05T00:04:26.113Z,1010.95
2016-06-05T00:04:36.097Z,1010.88
2016-06-05T00:04:46.116Z,1010.88
2016-06-05T00:04:56.100Z,1010.93
2016-06-05T00:05:06.084Z,1010.93
2016-06-05T00:05:16.084Z,1010.92
2016-06-05T00:05:26.084Z,1010.96
2016-06-05T00:05:36.084Z,1010.87
2016-06-05T00:05:46.072Z,1010.96
2016-06-05T00:05:56.072Z,1010.88
2016-06-05T00:06:06.072Z,1010.87
2016-06-05T00:06:16.056Z,1010.93
2016-06-05T00:06:26.056Z,1010.9
2016-06-05T00:06:36.056Z,1010.88
2016-06-05T00:06:45.902Z,1010.89
2016-06-05T00:06:56.043Z,1010.93
2016-06-05T00:07:06.043Z,1010.86
2016-06-05T00:07:16.027Z,1010.94
2016-06-05T00:07:26.027Z,1010.91
2016-06-05T00:07:36.027Z,1010.91
2016-06-05T00:07:46.029Z,1010.93
2016-06-05T00:07:56.013Z,1010.84
2016-06-05T00:08:06.013Z,1010.86
2016-06-05T00:08:16.013Z,1010.91
2016-06-05T00:08:25.998Z,1010.87
2016-06-05T00:08:35.998Z,1010.92
2016-06-05T00:08:45.986Z,1010.9
2016-06-05T00:08:55.986Z,1010.86
2016-06-05T00:09:05.986Z,1010.95
2016-06-05T00:09:15.986Z,1010.91
2016-06-05T00:09:25.970Z,1010.87
2016-06-05T00:09:35.970Z,1010.92
2016-06-05T00:09:45.988Z,1010.88
2016-06-05T00:09:55.957Z,1010.91
2016-06-05T00:10:05.957Z,1010.88
2016-06-05T00:10:15.957Z,1010.88
2016-06-05T00:10:25.941Z,1010.91
2016-06-05T00:10:35.941Z,1010.87
2016-06-05T00:10:45.944Z,1010.89
2016-06-05T00:10:55.944Z,1010.88
2016-06-05T00:11:05.929Z,1010.9
2016-06-05T00:11:15.929Z,1010.89
2016-06-05T00:11:25.929Z,1010.88
2016-06-05T00:11:35.913Z,1010.88
2016-06-05T00:11:45.916Z,1010.83
2016-06-05T00:11:55.760Z,1010.87
2016-06-05T00:12:05.900Z,1010.87
2016-06-05T00:12:15.900Z,1010.87
2016-06-05T00:12:26.150Z,1010.85
2016-06-05T00:12:35.900Z,1010.87
2016-06-05T00:12:46.231Z,1010.9
2016-06-05T00:12:56.216Z,1010.87
2016-06-05T00:13:05.919Z,1010.83
2016-06-05T00:13:16.013Z,1010.87
2016-06-05T00:13:25.888Z,1010.86
2016-06-05T00:13:36.310Z,1010.89
2016-06-05T00:13:45.858Z,1010.89
2016-06-05T00:13:55.858Z,1010.88
2016-06-05T00:14:05.843Z,1010.85
2016-06-05T00:14:15.843Z,1010.86
2016-06-05T00:14:25.843Z,1010.88
2016-06-05T00:14:35.858Z,1010.87
2016-06-05T00:14:45.829Z,1010.86
2016-06-05T00:14:55.829Z,1010.89
2016-06-05T00:15:05.829Z,1010.86
2016-06-05T00:15:15.814Z,1010.86
2016-06-05T00:15:25.814Z,1010.89
2016-06-05T00:15:35.814Z,1010.89
2016-06-05T00:15:45.832Z,1010.84
2016-06-05T00:15:55.801Z,1010.85
2016-06-05T00:16:05.645Z,1010.86
2016-06-05T00:16:15.785Z,1010.87
2016-06-05T00:16:25.785Z,1010.87
2016-06-05T00:16:35.785Z,1010.84
2016-06-05T00:16:45.788Z,1010.86
2016-06-05T00:16:55.773Z,1010.87
2016-06-05T00:17:05.773Z,1010.83
2016-06-05T00:17:15.773Z,1010.86
2016-06-05T00:17:25.773Z,1010.88
2016-06-05T00:17:35.757Z,1010.88
2016-06-05T00:17:45.760Z,1010.85
2016-06-05T00:17:55.760Z,1010.89
2016-06-05T00:18:05.744Z,1010.92
2016-06-05T00:18:15.744Z,1010.84
2016-06-05T00:18:25.588Z,1010.91
2016-06-05T00:18:47.544Z,1010.92
2016-06-05T00:18:53.591Z,1010.87
2016-06-05T00:19:03.576Z,1010.85
2016-06-05T00:19:13.576Z,1010.88
2016-06-05T00:19:23.435Z,1010.87
2016-06-05T00:19:33.560Z,1010.9
2016-06-05T00:19:43.560Z,1010.88
2016-06-05T00:19:53.562Z,1010.88
2016-06-05T00:20:03.406Z,1010.92
2016-06-05T00:20:13.562Z,1010.86
2016-06-05T00:20:23.546Z,1010.86
2016-06-05T00:20:33.546Z,1010.89
2016-06-05T00:20:43.531Z,1010.87
2016-06-05T00:20:53.534Z,1010.9
2016-06-05T00:21:03.549Z,1010.89
2016-06-05T00:21:13.518Z,1010.87
2016-06-05T00:21:23.518Z,1010.88
2016-06-05T00:21:33.518Z,1010.88
2016-06-05T00:21:43.502Z,1010.87
2016-06-05T00:21:53.505Z,1010.89
2016-06-05T00:22:03.505Z,1010.89
2016-06-05T00:22:13.349Z,1010.91
2016-06-05T00:22:23.490Z,1010.89
2016-06-05T00:22:33.490Z,1010.9
2016-06-05T00:22:43.490Z,1010.92
2016-06-05T00:22:53.476Z,1010.88
2016-06-05T00:23:03.476Z,1010.89
2016-06-05T00:23:13.476Z,1010.88
2016-06-05T00:23:23.461Z,1010.92
2016-06-05T00:23:33.461Z,1010.89
2016-06-05T00:23:43.461Z,1010.88
2016-06-05T00:23:53.448Z,1010.84
2016-06-05T00:24:03.448Z,1010.89
2016-06-05T00:24:13.432Z,1010.85
2016-06-05T00:24:23.432Z,1010.88
2016-06-05T00:24:33.432Z,1010.86
2016-06-05T00:24:43.432Z,1010.9
2016-06-05T00:24:53.451Z,1010.86
2016-06-05T00:25:03.435Z,1010.87
2016-06-05T00:25:13.420Z,1010.88
2016-06-05T00:25:23.420Z,1010.89
2016-06-05T00:25:33.404Z,1010.84
2016-06-05T00:25:43.420Z,1010.88
2016-06-05T00:25:53.423Z,1010.89
2016-06-05T00:26:03.391Z,1010.86
2016-06-05T00:26:13.438Z,1010.93
2016-06-05T00:26:23.391Z,1010.88
2016-06-05T00:26:33.391Z,1010.85
2016-06-05T00:26:43.391Z,1010.89
2016-06-05T00:26:53.378Z,1010.91
2016-06-05T00:27:03.378Z,1010.93
2016-06-05T00:27:13.362Z,1010.92
2016-06-05T00:27:23.362Z,1010.89
2016-06-05T00:27:34.128Z,1010.91
2016-06-05T00:27:43.315Z,1010.9
2016-06-05T00:27:53.365Z,1010.93
2016-06-05T00:28:03.350Z,1010.84
2016-06-05T00:28:13.850Z,1010.93
2016-06-05T00:28:23.350Z,1010.84
2016-06-05T00:28:33.365Z,1010.88
2016-06-05T00:28:43.334Z,1010.85
2016-06-05T00:28:53.320Z,1010.87
2016-06-05T00:29:03.320Z,1010.92
2016-06-05T00:29:13.305Z,1010.88
2016-06-05T00:29:23.305Z,1010.88
2016-06-05T00:29:33.305Z,1010.84
2016-06-05T00:29:43.305Z,1010.88
2016-06-05T00:29:53.308Z,1010.92
2016-06-05T00:30:03.292Z,1010.88
2016-06-05T00:30:13.276Z,1010.9
2016-06-05T00:30:23.276Z,1010.91
2016-06-05T00:30:33.276Z,1010.89
2016-06-05T00:30:43.276Z,1010.84
2016-06-05T00:30:53.264Z,1010.88
2016-06-05T00:31:03.264Z,1010.88
2016-06-05T00:31:13.248Z,1010.84
2016-06-05T00:31:23.248Z,1010.88
2016-06-05T00:31:33.264Z,1010.92
2016-06-05T00:31:43.248Z,1010.92
2016-06-05T00:31:53.250Z,1010.86
2016-06-05T00:32:03.235Z,1010.9
2016-06-05T00:32:13.250Z,1010.86
2016-06-05T00:32:23.219Z,1010.94
2016-06-05T00:32:33.219Z,1010.86
2016-06-05T00:32:43.219Z,1010.86
2016-06-05T00:32:53.206Z,1010.91
2016-06-05T00:33:03.206Z,1010.88
2016-06-05T00:33:13.206Z,1010.88
2016-06-05T00:33:23.191Z,1010.9
2016-06-05T00:33:33.050Z,1010.86
2016-06-05T00:33:43.191Z,1010.88
2016-06-05T00:33:53.178Z,1010.89
2016-06-05T00:34:03.178Z,1010.9
2016-06-05T00:34:13.178Z,1010.87
2016-06-05T00:34:23.178Z,1010.89
2016-06-05T00:34:33.178Z,1010.9
2016-06-05T00:34:43.178Z,1010.89
2016-06-05T00:34:53.164Z,1010.88
2016-06-05T00:35:03.164Z,1010.89
2016-06-05T00:35:13.149Z,1010.89
2016-06-05T00:35:23.149Z,1010.87
2016-06-05T00:35:33.149Z,1010.9
2016-06-05T00:35:43.133Z,1010.92
2016-06-05T00:35:53.136Z,1010.88
2016-06-05T00:36:03.136Z,1010.87
2016-06-05T00:36:13.121Z,1010.87
2016-06-05T00:36:23.121Z,1010.9
2016-06-05T00:36:33.121Z,1010.84
2016-06-05T00:36:43.105Z,1010.9
2016-06-05T00:36:53.108Z,1010.87
2016-06-05T00:37:03.108Z,1010.86
2016-06-05T00:37:13.108Z,1010.88
2016-06-05T00:37:23.092Z,1010.85
2016-06-05T00:37:33.092Z,1010.87
2016-06-05T00:37:43.077Z,1010.86
2016-06-05T00:37:53.080Z,1010.91
2016-06-05T00:38:03.080Z,1010.86
2016-06-05T00:38:13.064Z,1010.89
2016-06-05T00:38:23.064Z,1010.87
2016-06-05T00:38:33.048Z,1010.84
2016-06-05T00:38:43.064Z,1010.85
2016-06-05T00:38:53.050Z,1010.89
2016-06-05T00:39:03.050Z,1010.87
2016-06-05T00:39:13.050Z,1010.91
2016-06-05T00:39:23.035Z,1010.91
2016-06-05T00:39:33.035Z,1010.86
2016-06-05T00:39:43.035Z,1010.91
2016-06-05T00:39:53.022Z,1010.89
2016-06-05T00:40:03.022Z,1010.83
2016-06-05T00:40:13.022Z,1010.89
2016-06-05T00:40:22.882Z,1010.89
2016-06-05T00:40:33.007Z,1010.86
2016-06-05T00:40:43.007Z,1010.85
2016-06-05T00:40:53.010Z,1010.89
2016-06-05T00:41:02.994Z,1010.88
2016-06-05T00:41:12.978Z,1010.88
2016-06-05T00:41:23.010Z,1010.88
2016-06-05T00:41:33.010Z,1010.93
2016-06-05T00:41:42.978Z,1010.86
2016-06-05T00:41:53.169Z,1010.9
2016-06-05T00:42:02.966Z,1010.91
2016-06-05T00:42:12.981Z,1010.88
2016-06-05T00:42:22.997Z,1010.91
2016-06-05T00:42:32.809Z,1010.86
2016-06-05T00:42:43.684Z,1010.91
2016-06-05T00:42:52.811Z,1010.92
2016-06-05T00:43:03.921Z,1010.92
2016-06-05T00:43:12.936Z,1010.9
2016-06-05T00:43:22.936Z,1010.91
2016-06-05T00:43:32.936Z,1010.95
2016-06-05T00:43:43.421Z,1010.92
2016-06-05T00:43:52.923Z,1010.9
2016-06-05T00:44:02.907Z,1010.92
2016-06-05T00:44:12.907Z,1010.93
2016-06-05T00:44:22.907Z,1010.97
2016-06-05T00:44:32.892Z,1010.92
2016-06-05T00:44:42.907Z,1010.94
2016-06-05T00:44:52.896Z,1010.9
2016-06-05T00:45:02.896Z,1010.96
2016-06-05T00:45:12.896Z,1010.94
2016-06-05T00:45:22.880Z,1010.97
2016-06-05T00:45:32.880Z,1010.92
2016-06-05T00:45:42.896Z,1010.94
2016-06-05T00:45:52.866Z,1010.92
2016-06-05T00:46:02.866Z,1010.94
2016-06-05T00:46:12.866Z,1010.94
2016-06-05T00:46:22.851Z,1010.95
2016-06-05T00:46:32.866Z,1010.96
2016-06-05T00:46:42.835Z,1010.93
2016-06-05T00:46:52.837Z,1010.91
2016-06-05T00:47:02.837Z,1010.93
2016-06-05T00:47:12.837Z,1010.92
2016-06-05T00:47:22.821Z,1010.88
2016-06-05T00:47:32.821Z,1010.87
2016-06-05T00:47:42.821Z,1010.89
2016-06-05T00:47:52.809Z,1010.88
2016-06-05T00:48:02.840Z,1010.91
2016-06-05T00:48:12.809Z,1010.89
2016-06-05T00:48:22.809Z,1010.9
2016-06-05T00:48:32.793Z,1010.87
2016-06-05T00:48:42.778Z,1010.91
2016-06-05T00:48:52.781Z,1010.85
2016-06-05T00:49:02.781Z,1010.91
2016-06-05T00:49:12.781Z,1010.91
2016-06-05T00:49:22.781Z,1010.89
2016-06-05T00:49:32.765Z,1010.86
2016-06-05T00:49:42.749Z,1010.93
2016-06-05T00:49:52.768Z,1010.94
2016-06-05T00:50:02.768Z,1010.9
2016-06-05T00:50:12.752Z,1010.94
2016-06-05T00:50:22.752Z,1010.93
2016-06-05T00:50:32.737Z,1010.88
2016-06-05T00:50:42.737Z,1010.85
2016-06-05T00:50:52.724Z,1010.89
2016-06-05T00:51:02.724Z,1010.9
2016-06-05T00:51:12.724Z,1010.88
2016-06-05T00:51:22.724Z,1010.96
2016-06-05T00:51:32.708Z,1010.87
2016-06-05T00:51:42.708Z,1010.9
2016-06-05T00:51:52.695Z,1010.92
2016-06-05T00:52:02.695Z,1010.91
2016-06-05T00:52:12.695Z,1010.9
2016-06-05T00:52:22.695Z,1010.86
2016-06-05T00:52:32.695Z,1010.92
2016-06-05T00:52:42.695Z,1010.91
2016-06-05T00:52:52.682Z,1010.9
2016-06-05T00:53:02.667Z,1010.93
2016-06-05T00:53:12.667Z,1010.88
2016-06-05T00:53:22.667Z,1010.91
2016-06-05T00:53:32.667Z,1010.93
2016-06-05T00:53:42.651Z,1010.88
2016-06-05T00:53:52.654Z,1010.9
2016-06-05T00:54:02.654Z,1010.86
2016-06-05T00:54:12.638Z,1010.9
2016-06-05T00:54:22.638Z,1010.93
2016-06-05T00:54:32.638Z,1010.93
2016-06-05T00:54:42.482Z,1010.88
2016-06-05T00:54:52.625Z,1010.92
2016-06-05T00:55:02.468Z,1010.88
2016-06-05T00:55:12.625Z,1010.92
2016-06-05T00:55:22.609Z,1010.92
2016-06-05T00:55:32.593Z,1010.9
2016-06-05T00:55:42.593Z,1010.95
2016-06-05T00:55:52.596Z,1010.93
2016-06-05T00:56:02.596Z,1010.88
2016-06-05T00:56:12.596Z,1010.95
2016-06-05T00:56:22.581Z,1010.92
2016-06-05T00:56:32.581Z,1010.93
2016-06-05T00:56:42.581Z,1010.89
2016-06-05T00:56:52.584Z,1010.88
2016-06-05T00:57:02.584Z,1010.88
2016-06-05T00:57:12.568Z,1010.93
2016-06-05T00:57:22.553Z,1010.92
2016-06-05T00:57:33.349Z,1010.91
2016-06-05T00:57:42.771Z,1010.91
2016-06-05T00:57:52.556Z,1010.9
2016-06-05T00:58:02.587Z,1010.87
2016-06-05T00:58:12.571Z,1010.9
2016-06-05T00:58:22.446Z,1010.9
2016-06-05T00:58:32.384Z,1010.92
2016-06-05T00:58:43.087Z,1010.88
2016-06-05T00:58:52.526Z,1010.9
2016-06-05T00:59:02.511Z,1010.93
2016-06-05T00:59:12.526Z,1010.89
2016-06-05T00:59:22.511Z,1010.9
2016-06-05T00:59:32.495Z,1010.89
2016-06-05T00:59:42.495Z,1010.89
2016-06-05T00:59:52.498Z,1010.88
2016-06-05T01:00:02.498Z,1010.88
2016-06-05T01:00:12.482Z,1010.94
2016-06-05T01:00:22.482Z,1010.96
2016-06-05T01:00:32.482Z,1010.9
2016-06-05T01:00:42.467Z,1010.9
2016-06-05T01:00:52.470Z,1010.93
2016-06-05T01:01:02.470Z,1010.85
2016-06-05T01:01:12.454Z,1010.96
2016-06-05T01:01:22.454Z,1010.9
2016-06-05T01:01:32.470Z,1010.89
2016-06-05T01:01:42.439Z,1010.9
2016-06-05T01:01:52.441Z,1010.93
2016-06-05T01:02:02.441Z,1010.88
2016-06-05T01:02:12.425Z,1010.94
2016-06-05T01:02:22.425Z,1010.92
2016-06-05T01:02:32.409Z,1010.9
2016-06-05T01:02:42.409Z,1010.89
2016-06-05T01:02:52.411Z,1010.91
2016-06-05T01:03:02.411Z,1010.89
2016-06-05T01:03:12.396Z,1010.9
2016-06-05T01:03:22.396Z,1010.89
2016-06-05T01:03:32.396Z,1010.86
2016-06-05T01:03:42.380Z,1010.91
2016-06-05T01:03:52.400Z,1010.87
2016-06-05T01:04:02.384Z,1010.92
2016-06-05T01:04:12.384Z,1010.89
2016-06-05T01:04:22.368Z,1010.89
2016-06-05T01:04:32.368Z,1010.9
2016-06-05T01:04:42.368Z,1010.91
2016-06-05T01:04:52.355Z,1010.92
2016-06-05T01:05:02.370Z,1010.91
2016-06-05T01:05:12.355Z,1010.94
2016-06-05T01:05:22.355Z,1010.92
2016-06-05T01:05:32.339Z,1010.91
2016-06-05T01:05:42.339Z,1010.91
2016-06-05T01:05:52.327Z,1010.92
2016-06-05T01:06:02.327Z,1010.91
2016-06-05T01:06:12.327Z,1010.88
2016-06-05T01:06:22.327Z,1010.92
2016-06-05T01:06:32.327Z,1010.93
2016-06-05T01:06:42.311Z,1010.95
2016-06-05T01:06:52.298Z,1010.9
2016-06-05T01:07:02.314Z,1010.95
2016-06-05T01:07:12.314Z,1010.92
2016-06-05T01:07:22.314Z,1010.9
2016-06-05T01:07:32.298Z,1010.93
2016-06-05T01:07:42.283Z,1010.94
2016-06-05T01:07:52.285Z,1010.91
2016-06-05T01:08:02.300Z,1010.94
2016-06-05T01:08:12.269Z,1010.94
2016-06-05T01:08:22.285Z,1010.91
2016-06-05T01:08:32.269Z,1010.92
2016-06-05T01:08:42.269Z,1011.01
2016-06-05T01:08:52.272Z,1010.92
2016-06-05T01:09:02.241Z,1010.93
2016-06-05T01:09:12.241Z,1010.93
2016-06-05T01:09:22.241Z,1010.95
2016-06-05T01:09:32.241Z,1010.92
2016-06-05T01:09:42.225Z,1010.95
2016-06-05T01:09:52.228Z,1010.93
2016-06-05T01:10:02.213Z,1010.92
2016-06-05T01:10:12.213Z,1010.94
2016-06-05T01:10:22.213Z,1010.9
2016-06-05T01:10:32.197Z,1010.92
2016-06-05T01:10:42.197Z,1010.95
2016-06-05T01:10:52.200Z,1010.96
2016-06-05T01:11:02.200Z,1010.94
2016-06-05T01:11:12.184Z,1010.96
2016-06-05T01:11:22.184Z,1010.94
2016-06-05T01:11:32.169Z,1010.99
2016-06-05T01:11:42.184Z,1010.94
2016-06-05T01:11:52.171Z,1010.94
2016-06-05T01:12:02.171Z,1010.96
2016-06-05T01:12:12.171Z,1010.93
2016-06-05T01:12:22.155Z,1010.96
2016-06-05T01:12:32.905Z,1010.97
2016-06-05T01:12:43.608Z,1010.92
2016-06-05T01:12:52.158Z,1010.98
2016-06-05T01:13:02.361Z,1010.94
2016-06-05T01:13:12.924Z,1011.02
2016-06-05T01:13:21.986Z,1011.01
2016-06-05T01:13:32.455Z,1010.99
2016-06-05T01:13:41.986Z,1010.95
2016-06-05T01:13:51.973Z,1010.95
2016-06-05T01:14:02.129Z,1010.93
2016-06-05T01:14:12.113Z,1010.95
2016-06-05T01:14:22.098Z,1010.94
2016-06-05T01:14:32.144Z,1010.94
2016-06-05T01:14:42.098Z,1010.95
2016-06-05T01:14:52.085Z,1011
2016-06-05T01:15:02.085Z,1010.99
2016-06-05T01:15:12.085Z,1010.99
2016-06-05T01:15:22.069Z,1010.97
2016-06-05T01:15:32.069Z,1010.96
2016-06-05T01:15:42.069Z,1010.99
2016-06-05T01:15:52.057Z,1010.95
2016-06-05T01:16:02.057Z,1010.96
2016-06-05T01:16:12.057Z,1010.97
2016-06-05T01:16:22.072Z,1010.92
2016-06-05T01:16:32.041Z,1010.94
2016-06-05T01:16:41.885Z,1011
2016-06-05T01:16:52.043Z,1010.98
2016-06-05T01:17:02.043Z,1011
2016-06-05T01:17:12.027Z,1010.97
2016-06-05T01:17:22.027Z,1011.01
2016-06-05T01:17:32.012Z,1010.98
2016-06-05T01:17:42.012Z,1011
2016-06-05T01:17:52.015Z,1011.01
2016-06-05T01:18:01.999Z,1010.98
2016-06-05T01:18:12.015Z,1011
2016-06-05T01:18:21.999Z,1011
2016-06-05T01:18:31.984Z,1011.03
2016-06-05T01:18:41.999Z,1011
2016-06-05T01:18:51.830Z,1011.03
2016-06-05T01:19:01.987Z,1011.02
2016-06-05T01:19:11.971Z,1011.03
2016-06-05T01:19:21.971Z,1010.99
2016-06-05T01:19:31.971Z,1010.99
2016-06-05T01:19:41.955Z,1011
2016-06-05T01:19:51.849Z,1010.99
2016-06-05T01:20:01.958Z,1010.97
2016-06-05T01:20:11.958Z,1010.98
2016-06-05T01:20:21.943Z,1011.01
2016-06-05T01:20:31.943Z,1010.95
2016-06-05T01:20:41.927Z,1010.96
2016-06-05T01:20:51.930Z,1010.98
2016-06-05T01:21:01.930Z,1010.97
2016-06-05T01:21:11.914Z,1010.99
2016-06-05T01:21:21.914Z,1010.99
2016-06-05T01:21:31.914Z,1011.02
2016-06-05T01:21:41.914Z,1011.01
2016-06-05T01:21:51.901Z,1011
2016-06-05T01:22:01.916Z,1011.04
2016-06-05T01:22:11.901Z,1011.03
2016-06-05T01:22:21.901Z,1011
2016-06-05T01:22:31.885Z,1011.02
2016-06-05T01:22:41.885Z,1010.98
2016-06-05T01:22:51.904Z,1011
2016-06-05T01:23:01.873Z,1011.04
2016-06-05T01:23:11.857Z,1010.99
2016-06-05T01:23:21.857Z,1011.03
2016-06-05T01:23:31.857Z,1011.02
2016-06-05T01:23:41.857Z,1011.01
2016-06-05T01:23:51.843Z,1011.02
2016-06-05T01:24:01.843Z,1011.01
2016-06-05T01:24:11.843Z,1011.04
2016-06-05T01:24:21.687Z,1011.08
2016-06-05T01:24:31.828Z,1011.02
2016-06-05T01:24:41.828Z,1011.02
2016-06-05T01:24:51.815Z,1011
2016-06-05T01:25:01.815Z,1011.01
2016-06-05T01:25:11.831Z,1011.04
2016-06-05T01:25:21.815Z,1010.98
2016-06-05T01:25:31.815Z,1010.99
2016-06-05T01:25:41.799Z,1011.02
2016-06-05T01:25:51.802Z,1010.98
2016-06-05T01:26:01.802Z,1011.02
2016-06-05T01:26:11.787Z,1011
2016-06-05T01:26:21.787Z,1010.99
2016-06-05T01:26:31.771Z,1011.03
2016-06-05T01:26:41.771Z,1011.03
2016-06-05T01:26:51.773Z,1011.03
2016-06-05T01:27:01.758Z,1011.02
2016-06-05T01:27:11.758Z,1011.08
2016-06-05T01:27:21.758Z,1011.01
2016-06-05T01:27:32.539Z,1011
2016-06-05T01:27:41.742Z,1011.05
2016-06-05T01:27:51.620Z,1011.04
2016-06-05T01:28:01.745Z,1011.02
2016-06-05T01:28:12.151Z,1011.04
2016-06-05T01:28:21.729Z,1011.08
2016-06-05T01:28:31.589Z,1011.01
2016-06-05T01:28:41.901Z,1011.06
2016-06-05T01:29:02.060Z,1011.05
2016-06-05T01:29:12.060Z,1011
2016-06-05T01:29:22.060Z,1011.08
2016-06-05T01:29:32.045Z,1011.06
2016-06-05T01:29:42.045Z,1011.02
2016-06-05T01:29:52.047Z,1011.07
2016-06-05T01:30:02.031Z,1011
2016-06-05T01:30:12.031Z,1011.06
2016-06-05T01:30:22.031Z,1011.05
2016-06-05T01:30:32.031Z,1011.02
2016-06-05T01:30:42.031Z,1011.05
2016-06-05T01:30:52.020Z,1011.08
2016-06-05T01:31:02.020Z,1011.07
2016-06-05T01:31:12.020Z,1011.04
2016-06-05T01:31:22.004Z,1011.05
2016-06-05T01:31:31.988Z,1011.04
2016-06-05T01:31:41.988Z,1011.04
2016-06-05T01:31:51.990Z,1011.05
2016-06-05T01:32:02.006Z,1011.04
2016-06-05T01:32:11.975Z,1011.06
2016-06-05T01:32:21.975Z,1011.09
2016-06-05T01:32:31.975Z,1011.06
2016-06-05T01:32:41.959Z,1011.04
2016-06-05T01:32:51.977Z,1011.04
2016-06-05T01:33:01.961Z,1011.06
2016-06-05T01:33:11.945Z,1010.98
2016-06-05T01:33:21.945Z,1011.09
2016-06-05T01:33:31.789Z,1011.08
2016-06-05T01:33:41.945Z,1011.02
2016-06-05T01:33:51.933Z,1011.1
2016-06-05T01:34:01.933Z,1011.09
2016-06-05T01:34:11.933Z,1011.06
2016-06-05T01:34:21.948Z,1011.04
2016-06-05T01:34:31.917Z,1011.09
2016-06-05T01:34:41.902Z,1011.08
2016-06-05T01:34:51.920Z,1011.06
2016-06-05T01:35:01.889Z,1011.02
2016-06-05T01:35:11.889Z,1011.08
2016-06-05T01:35:21.920Z,1011.05
2016-06-05T01:35:31.889Z,1011.03
2016-06-05T01:35:41.873Z,1011.06
2016-06-05T01:35:51.876Z,1011.07
2016-06-05T01:36:01.876Z,1011.02
2016-06-05T01:36:11.876Z,1011.09
2016-06-05T01:36:21.861Z,1011.07
2016-06-05T01:36:31.861Z,1011.04
2016-06-05T01:36:41.861Z,1011.06
2016-06-05T01:36:51.848Z,1011.07
2016-06-05T01:37:01.848Z,1011.02
2016-06-05T01:37:11.864Z,1011.07
2016-06-05T01:37:21.832Z,1011.11
2016-06-05T01:37:31.676Z,1011.07
2016-06-05T01:37:41.832Z,1011.06
2016-06-05T01:37:51.819Z,1011.04
2016-06-05T01:38:01.834Z,1011.06
2016-06-05T01:38:11.819Z,1011.06
2016-06-05T01:38:21.803Z,1011.08
2016-06-05T01:38:31.803Z,1011.06
2016-06-05T01:38:41.803Z,1011.11
2016-06-05T01:38:51.790Z,1011.04
2016-06-05T01:39:01.790Z,1011.09
2016-06-05T01:39:11.790Z,1011.07
2016-06-05T01:39:21.774Z,1011.09
2016-06-05T01:39:31.790Z,1011.05
2016-06-05T01:39:41.774Z,1011.07
2016-06-05T01:39:51.762Z,1011.08
2016-06-05T01:40:01.762Z,1011.06
2016-06-05T01:40:11.762Z,1011.1
2016-06-05T01:40:21.762Z,1011.08
2016-06-05T01:40:31.747Z,1011.1
2016-06-05T01:40:41.747Z,1011.11
2016-06-05T01:40:51.749Z,1011.1
2016-06-05T01:41:01.733Z,1011.07
2016-06-05T01:41:11.733Z,1011.11
2016-06-05T01:41:21.733Z,1011.08
2016-06-05T01:41:31.733Z,1011.13
2016-06-05T01:41:41.717Z,1011.07
2016-06-05T01:41:51.720Z,1011.14
2016-06-05T01:42:01.705Z,1011.14
2016-06-05T01:42:11.705Z,1011.11
2016-06-05T01:42:21.705Z,1011.12
2016-06-05T01:42:31.549Z,1011.07
2016-06-05T01:42:42.267Z,1011.09
2016-06-05T01:42:52.739Z,1011.08
2016-06-05T01:43:01.536Z,1011.12
2016-06-05T01:43:12.208Z,1011.1
2016-06-05T01:43:21.880Z,1011.1
2016-06-05T01:43:32.255Z,1011.1
2016-06-05T01:43:42.614Z,1011.11
2016-06-05T01:43:51.664Z,1011.07
2016-06-05T01:44:01.664Z,1011.02
2016-06-05T01:44:11.648Z,1011.07
2016-06-05T01:44:21.648Z,1011.09
2016-06-05T01:44:31.648Z,1011.1
2016-06-05T01:44:41.633Z,1011.09
2016-06-05T01:44:51.635Z,1011.08
2016-06-05T01:45:01.650Z,1011.08
2016-06-05T01:45:11.635Z,1011.06
2016-06-05T01:45:21.463Z,1011.06
2016-06-05T01:45:31.635Z,1011.03
2016-06-05T01:45:41.619Z,1011.06
2016-06-05T01:45:51.621Z,1011.05
2016-06-05T01:46:01.605Z,1011.09
2016-06-05T01:46:11.605Z,1011.08
2016-06-05T01:46:21.605Z,1011.08
2016-06-05T01:46:31.590Z,1011.09
2016-06-05T01:46:41.434Z,1011.12
2016-06-05T01:46:51.593Z,1011.07
2016-06-05T01:47:01.577Z,1011.1
2016-06-05T01:47:11.593Z,1011.09
2016-06-05T01:47:21.562Z,1011.09
2016-06-05T01:47:31.562Z,1011.14
2016-06-05T01:47:41.562Z,1011.06
2016-06-05T01:47:51.405Z,1011.11
2016-06-05T01:48:01.565Z,1011.07
2016-06-05T01:48:11.549Z,1011.1
2016-06-05T01:48:21.533Z,1011.11
2016-06-05T01:48:31.533Z,1011.1
2016-06-05T01:48:41.533Z,1011.11
2016-06-05T01:48:51.518Z,1011.07
2016-06-05T01:49:01.520Z,1011.04
2016-06-05T01:49:11.520Z,1011.08
2016-06-05T01:49:21.504Z,1011.06
2016-06-05T01:49:31.504Z,1011.07
2016-06-05T01:49:41.504Z,1011.07
2016-06-05T01:49:51.504Z,1011.09
2016-06-05T01:50:01.508Z,1011.08
2016-06-05T01:50:11.492Z,1011.06
2016-06-05T01:50:21.492Z,1011.12
2016-06-05T01:50:31.477Z,1011.06
2016-06-05T01:50:41.477Z,1011.08
2016-06-05T01:50:51.461Z,1011.06
2016-06-05T01:51:01.479Z,1011.11
2016-06-05T01:51:11.463Z,1011.06
2016-06-05T01:51:21.463Z,1011.08
2016-06-05T01:51:31.463Z,1011.06
2016-06-05T01:51:41.448Z,1011.05
2016-06-05T01:51:51.448Z,1011.07
2016-06-05T01:52:01.451Z,1011.11
2016-06-05T01:52:11.435Z,1011.08
2016-06-05T01:52:21.435Z,1011.08
2016-06-05T01:52:31.435Z,1011.06
2016-06-05T01:52:41.419Z,1011.08
2016-06-05T01:52:51.419Z,1011.07
2016-06-05T01:53:01.421Z,1011.05
2016-06-05T01:53:11.406Z,1011.07
2016-06-05T01:53:21.406Z,1011.07
2016-06-05T01:53:31.390Z,1011.1
2016-06-05T01:53:41.390Z,1011.08
2016-06-05T01:53:51.406Z,1011.1
2016-06-05T01:54:01.393Z,1011.08
2016-06-05T01:54:11.377Z,1011.08
2016-06-05T01:54:21.377Z,1011.06
2016-06-05T01:54:31.377Z,1011.03
2016-06-05T01:54:41.377Z,1011.11
2016-06-05T01:54:51.362Z,1011.07
2016-06-05T01:55:01.380Z,1011.06
2016-06-05T01:55:11.365Z,1011.06
2016-06-05T01:55:21.209Z,1011.1
2016-06-05T01:55:31.349Z,1011.06
2016-06-05T01:55:41.334Z,1011.07
2016-06-05T01:55:51.334Z,1011.08
2016-06-05T01:56:01.337Z,1011.04
2016-06-05T01:56:11.337Z,1011.05
2016-06-05T01:56:21.337Z,1011.06
2016-06-05T01:56:31.321Z,1011.07
2016-06-05T01:56:41.321Z,1011.02
2016-06-05T01:56:51.321Z,1011.03
2016-06-05T01:57:01.323Z,1011.08
2016-06-05T01:57:11.307Z,1011.08
2016-06-05T01:57:21.307Z,1011.07
2016-06-05T01:57:31.604Z,1011.08
2016-06-05T01:57:41.729Z,1011.06
2016-06-05T01:57:51.870Z,1011.1
2016-06-05T01:58:01.887Z,1011.08
2016-06-05T01:58:11.294Z,1011.03
2016-06-05T01:58:21.278Z,1011.08
2016-06-05T01:58:31.762Z,1011.08
2016-06-05T01:58:41.434Z,1011.03
2016-06-05T01:58:51.106Z,1011.11
2016-06-05T01:59:01.250Z,1011.05
2016-06-05T01:59:11.250Z,1011.05
2016-06-05T01:59:21.265Z,1011.08
2016-06-05T01:59:31.234Z,1011.04
2016-06-05T01:59:41.234Z,1011.07
2016-06-05T01:59:51.234Z,1011.08
2016-06-05T02:00:01.238Z,1011.05
2016-06-05T02:00:11.223Z,1011.05
2016-06-05T02:00:21.207Z,1011.09
2016-06-05T02:00:31.207Z,1011.08
2016-06-05T02:00:41.207Z,1011.12
2016-06-05T02:00:51.191Z,1011.08
2016-06-05T02:01:01.209Z,1011.08
2016-06-05T02:01:11.193Z,1011.11
2016-06-05T02:01:21.178Z,1011.04
2016-06-05T02:01:31.193Z,1011.08
2016-06-05T02:01:41.193Z,1011.06
2016-06-05T02:01:51.178Z,1011.12